Time;durP1;ratioP1;P1;durP2;ratioP2;P2;SDS_P1;SDS_P2;PMS_P1;PMS_P2;Temp;Humidity;BMP_temperature;BMP_pressure;BME280_temperature;BME280_humidity;BME280_pressure;Samples;Min_cycle;Max_cycle;Signal;HPM_P1;HPM_P2
2021/08/28 00:00:59;;;;;;;;;;;15.50;99.90;;;;;;5115202;27;19926;-81
2021/08/28 00:03:25;;;;;;;;;;;15.40;99.90;;;;;;5118569;27;20383;-81
2021/08/28 00:05:51;;;;;;;;;;;15.40;99.90;;;;;;5118044;27;20010;-81
2021/08/28 00:08:16;;;;;;;;;;;15.50;99.90;;;;;;5096752;28;19931;-81
2021/08/28 00:10:43;;;;;;;;;;;15.40;99.90;;;;;;5099784;27;20358;-81
2021/08/28 00:13:09;;;;;;;;;;;15.50;99.90;;;;;;5100938;28;19923;-81
2021/08/28 00:15:35;;;;;;;;;;;15.40;99.90;;;;;;5100793;27;20043;-81
2021/08/28 00:18:00;;;;;;;;;;;15.50;99.90;;;;;;5118130;27;19964;-81
2021/08/28 00:20:26;;;;;;;;;;;15.50;99.90;;;;;;5122151;27;19930;-81
2021/08/28 00:22:52;;;;;;;;;;;15.40;99.90;;;;;;5087001;27;19924;-81
2021/08/28 00:25:17;;;;;;;;;;;15.50;99.90;;;;;;5104508;27;19919;-81
2021/08/28 00:27:43;;;;;;;;;;;15.60;99.90;;;;;;5073464;28;19927;-81
2021/08/28 00:30:09;;;;;;;;;;;15.50;99.90;;;;;;5120305;27;20588;-81
2021/08/28 00:32:35;;;;;;;;;;;15.50;99.90;;;;;;5101586;27;19920;-80
2021/08/28 00:35:01;;;;;;;;;;;15.50;99.90;;;;;;5104258;27;19934;-81
2021/08/28 00:37:26;;;;;;;;;;;15.50;99.90;;;;;;5098515;27;19938;-81
2021/08/28 00:39:52;;;;;;;;;;;15.60;99.90;;;;;;5101753;28;19927;-81
2021/08/28 00:42:17;;;;;;;;;;;15.60;99.90;;;;;;5096740;27;20396;-81
2021/08/28 00:44:44;;;;;;;;;;;15.60;99.90;;;;;;5108686;28;19923;-81
2021/08/28 00:47:13;;;;;;;;;;;15.70;99.90;;;;;;5112365;27;20002;-81
2021/08/28 00:49:39;;;;;;;;;;;15.70;99.90;;;;;;5106019;28;19928;-80
2021/08/28 00:52:06;;;;;;;;;;;15.60;99.90;;;;;;5089071;28;19930;-80
2021/08/28 00:54:36;;;;;;;;;;;15.70;99.90;;;;;;5121840;28;19927;-80
2021/08/28 00:57:02;;;;;;;;;;;15.60;99.90;;;;;;5073437;28;19956;-80
2021/08/28 00:59:27;;;;;;;;;;;15.60;99.90;;;;;;5108380;28;19919;-81
2021/08/28 01:01:53;;;;;;;;;;;15.60;99.90;;;;;;5096122;28;19974;-81
2021/08/28 01:04:22;;;;;;;;;;;15.60;99.90;;;;;;5111724;28;21646;-81
2021/08/28 01:07:01;;;;;;;;;;;15.60;99.90;;;;;;5111379;28;19920;-81
2021/08/28 01:09:29;;;;;;;;;;;15.50;99.90;;;;;;5124294;28;19977;-81
2021/08/28 01:12:06;;;;;;;;;;;15.60;99.90;;;;;;5107542;28;20006;-81
2021/08/28 01:14:34;;;;;;;;;;;15.60;99.90;;;;;;5097308;28;19927;-81
2021/08/28 01:17:04;;;;;;;;;;;15.60;99.90;;;;;;5110666;28;19935;-81
2021/08/28 01:19:38;;;;;;;;;;;15.70;99.90;;;;;;5108475;28;20438;-81
2021/08/28 01:22:15;;;;;;;;;;;15.60;99.90;;;;;;5089991;28;19924;-81
2021/08/28 01:24:41;;;;;;;;;;;15.50;99.90;;;;;;5111615;28;19938;-81
2021/08/28 01:27:11;;;;;;;;;;;15.60;99.90;;;;;;5110878;28;19926;-81
2021/08/28 01:29:38;;;;;;;;;;;15.70;99.90;;;;;;5106730;28;20398;-81
2021/08/28 01:32:03;;;;;;;;;;;15.60;99.90;;;;;;5106956;28;20024;-81
2021/08/28 01:34:30;;;;;;;;;;;15.70;99.90;;;;;;5117749;27;20345;-81
2021/08/28 01:36:56;;;;;;;;;;;15.70;99.90;;;;;;5116859;27;19916;-81
2021/08/28 01:39:23;;;;;;;;;;;15.70;99.90;;;;;;5094474;28;19966;-81
2021/08/28 01:41:50;;;;;;;;;;;15.80;99.90;;;;;;5114067;27;19927;-81
2021/08/28 01:44:16;;;;;;;;;;;15.80;99.90;;;;;;5118888;27;19923;-81
2021/08/28 01:46:42;;;;;;;;;;;15.70;99.90;;;;;;5126407;27;19915;-81
2021/08/28 01:49:08;;;;;;;;;;;15.80;99.90;;;;;;5096774;27;19923;-81
2021/08/28 01:51:34;;;;;;;;;;;15.70;99.90;;;;;;5080639;28;19971;-81
2021/08/28 01:53:59;;;;;;;;;;;15.70;99.90;;;;;;5077394;27;19963;-81
2021/08/28 01:56:25;;;;;;;;;;;15.70;99.90;;;;;;5112931;27;19923;-81
2021/08/28 01:58:51;;;;;;;;;;;15.80;99.90;;;;;;5113071;27;19920;-81
2021/08/28 02:01:17;;;;;;;;;;;15.70;99.90;;;;;;5101216;28;19962;-81
2021/08/28 02:03:42;;;;;;;;;;;15.80;99.90;;;;;;5094063;28;19920;-81
2021/08/28 02:06:11;;;;;;;;;;;15.80;99.90;;;;;;5088231;27;20392;-82
2021/08/28 02:08:42;;;;;;;;;;;15.70;99.90;;;;;;5109010;28;20049;-81
2021/08/28 02:11:11;;;;;;;;;;;15.70;99.90;;;;;;5103961;27;19924;-81
2021/08/28 02:13:40;;;;;;;;;;;15.80;99.90;;;;;;5105537;28;19982;-81
2021/08/28 02:16:08;;;;;;;;;;;15.80;99.90;;;;;;5110078;28;19920;-81
2021/08/28 02:18:43;;;;;;;;;;;15.70;99.90;;;;;;5100444;27;19923;-81
2021/08/28 02:21:09;;;;;;;;;;;15.80;99.90;;;;;;5110205;27;19928;-81
2021/08/28 02:23:38;;;;;;;;;;;15.80;99.90;;;;;;5099798;27;20294;-81
2021/08/28 02:26:09;;;;;;;;;;;15.70;99.90;;;;;;5093248;28;20438;-81
2021/08/28 02:28:37;;;;;;;;;;;15.80;99.90;;;;;;5097763;27;19928;-81
2021/08/28 02:31:05;;;;;;;;;;;15.80;99.90;;;;;;5101033;27;19919;-82
2021/08/28 02:33:31;;;;;;;;;;;15.70;99.90;;;;;;5112423;27;19984;-81
2021/08/28 02:35:58;;;;;;;;;;;15.80;99.90;;;;;;5093402;28;20275;-81
2021/08/28 02:38:24;;;;;;;;;;;15.70;99.90;;;;;;5092847;27;20023;-81
2021/08/28 02:40:50;;;;;;;;;;;15.70;99.90;;;;;;5115378;27;19984;-81
2021/08/28 02:43:16;;;;;;;;;;;15.80;99.90;;;;;;5111059;27;19923;-81
2021/08/28 02:45:42;;;;;;;;;;;15.70;99.90;;;;;;5124055;27;20562;-81
2021/08/28 02:48:08;;;;;;;;;;;15.70;99.90;;;;;;5089196;28;19927;-81
2021/08/28 02:50:35;;;;;;;;;;;15.80;99.90;;;;;;5092501;28;19927;-80
2021/08/28 02:53:02;;;;;;;;;;;15.70;99.90;;;;;;5108940;28;20383;-81
2021/08/28 02:55:30;;;;;;;;;;;15.80;99.90;;;;;;5109712;28;20040;-81
2021/08/28 02:57:56;;;;;;;;;;;15.80;99.90;;;;;;5109636;28;19927;-81
2021/08/28 03:00:22;;;;;;;;;;;15.80;99.90;;;;;;5076245;28;19920;-81
2021/08/28 03:02:48;;;;;;;;;;;15.80;99.90;;;;;;5074369;28;19924;-81
2021/08/28 03:05:14;;;;;;;;;;;15.80;99.90;;;;;;5090975;28;19924;-81
2021/08/28 03:07:40;;;;;;;;;;;15.80;99.90;;;;;;5109898;28;20001;-81
2021/08/28 03:10:07;;;;;;;;;;;15.80;99.90;;;;;;5083450;28;20412;-81
2021/08/28 03:12:33;;;;;;;;;;;15.80;99.90;;;;;;5075874;28;19969;-82
2021/08/28 03:14:58;;;;;;;;;;;15.80;99.90;;;;;;5060169;28;19928;-81
2021/08/28 03:17:24;;;;;;;;;;;15.80;99.90;;;;;;5108087;28;19986;-81
2021/08/28 03:19:51;;;;;;;;;;;15.70;99.90;;;;;;5074117;28;19930;-81
2021/08/28 03:22:18;;;;;;;;;;;15.80;99.90;;;;;;5081771;28;19928;-81
2021/08/28 03:24:46;;;;;;;;;;;15.70;99.90;;;;;;5109175;28;19919;-81
2021/08/28 03:27:13;;;;;;;;;;;15.70;99.90;;;;;;5092046;28;19936;-81
2021/08/28 03:29:40;;;;;;;;;;;15.70;99.90;;;;;;5090736;28;19951;-80
2021/08/28 03:32:06;;;;;;;;;;;15.60;99.90;;;;;;5109214;28;20043;-81
2021/08/28 03:34:32;;;;;;;;;;;15.70;99.90;;;;;;5090853;28;20384;-81
2021/08/28 03:36:58;;;;;;;;;;;15.70;99.90;;;;;;5092271;28;19923;-81
2021/08/28 03:39:24;;;;;;;;;;;15.70;99.90;;;;;;5093428;28;19942;-81
2021/08/28 03:41:49;;;;;;;;;;;15.70;99.90;;;;;;5086348;28;20321;-81
2021/08/28 03:44:15;;;;;;;;;;;15.60;99.90;;;;;;5092600;28;19923;-82
2021/08/28 03:46:41;;;;;;;;;;;15.60;99.90;;;;;;5091933;28;20264;-81
2021/08/28 03:49:07;;;;;;;;;;;15.70;99.90;;;;;;5072119;28;19924;-81
2021/08/28 03:51:34;;;;;;;;;;;15.70;99.90;;;;;;5087176;27;19923;-81
2021/08/28 03:54:00;;;;;;;;;;;15.60;99.90;;;;;;5103983;28;20623;-82
2021/08/28 03:56:25;;;;;;;;;;;15.60;99.90;;;;;;5108407;28;19920;-82
2021/08/28 03:58:51;;;;;;;;;;;15.40;99.90;;;;;;5105181;27;20002;-81
2021/08/28 04:01:16;;;;;;;;;;;15.40;99.90;;;;;;5087064;28;19924;-82
2021/08/28 04:03:42;;;;;;;;;;;15.40;99.90;;;;;;5091997;28;19920;-82
2021/08/28 04:06:07;;;;;;;;;;;15.40;99.90;;;;;;5115363;27;19923;-81
2021/08/28 04:08:33;;;;;;;;;;;15.40;99.90;;;;;;5111858;27;20394;-81
2021/08/28 04:10:59;;;;;;;;;;;15.40;99.90;;;;;;5111486;27;19932;-81
2021/08/28 04:13:24;;;;;;;;;;;15.40;99.90;;;;;;5093999;27;20014;-82
2021/08/28 04:15:51;;;;;;;;;;;15.40;99.90;;;;;;5103383;28;19923;-81
2021/08/28 04:18:16;;;;;;;;;;;15.40;99.90;;;;;;5091871;28;19939;-81
2021/08/28 04:20:42;;;;;;;;;;;15.40;99.90;;;;;;5080967;27;20516;-81
2021/08/28 04:23:08;;;;;;;;;;;15.40;99.90;;;;;;5090673;27;19920;-81
2021/08/28 04:25:33;;;;;;;;;;;15.40;99.90;;;;;;5111616;27;19962;-81
2021/08/28 04:27:59;;;;;;;;;;;15.40;99.90;;;;;;5104999;27;19927;-80
2021/08/28 04:30:25;;;;;;;;;;;15.50;99.90;;;;;;5097870;27;20416;-82
2021/08/28 04:32:51;;;;;;;;;;;15.50;99.90;;;;;;5104469;27;19971;-81
2021/08/28 04:35:16;;;;;;;;;;;15.50;99.90;;;;;;5109641;27;20006;-81
2021/08/28 04:37:42;;;;;;;;;;;15.50;99.90;;;;;;5111112;27;19924;-81
2021/08/28 04:40:08;;;;;;;;;;;15.50;99.90;;;;;;5111203;27;19923;-81
2021/08/28 04:42:33;;;;;;;;;;;15.60;99.90;;;;;;5099452;27;20039;-81
2021/08/28 04:44:59;;;;;;;;;;;15.60;99.90;;;;;;5105692;27;19927;-81
2021/08/28 04:47:24;;;;;;;;;;;15.60;99.90;;;;;;5098107;28;19924;-81
2021/08/28 04:49:50;;;;;;;;;;;15.60;99.90;;;;;;5080126;27;19935;-81
2021/08/28 04:52:16;;;;;;;;;;;15.60;99.90;;;;;;5114351;27;19968;-81
2021/08/28 04:54:41;;;;;;;;;;;15.60;99.90;;;;;;5109197;27;19929;-82
2021/08/28 04:57:07;;;;;;;;;;;15.60;99.90;;;;;;5093595;28;19972;-82
2021/08/28 04:59:33;;;;;;;;;;;15.60;99.90;;;;;;5114359;27;19923;-81
2021/08/28 05:01:59;;;;;;;;;;;15.60;99.90;;;;;;5092339;27;19927;-81
2021/08/28 05:04:25;;;;;;;;;;;15.50;99.90;;;;;;5119896;27;19919;-81
2021/08/28 05:06:51;;;;;;;;;;;15.60;99.90;;;;;;5120450;27;20285;-81
2021/08/28 05:09:16;;;;;;;;;;;15.60;99.90;;;;;;5123972;27;19927;-81
2021/08/28 05:11:42;;;;;;;;;;;15.60;99.90;;;;;;5090316;27;19930;-81
2021/08/28 05:14:08;;;;;;;;;;;15.60;99.90;;;;;;5110233;27;19977;-81
2021/08/28 05:16:33;;;;;;;;;;;15.70;99.90;;;;;;5109610;27;19930;-82
2021/08/28 05:18:59;;;;;;;;;;;15.60;99.90;;;;;;5089225;27;20446;-81
2021/08/28 05:21:24;;;;;;;;;;;15.70;99.90;;;;;;5120449;27;19923;-82
2021/08/28 05:23:50;;;;;;;;;;;15.70;99.90;;;;;;5085184;27;20022;-81
2021/08/28 05:26:15;;;;;;;;;;;15.70;99.90;;;;;;5098768;27;19924;-81
2021/08/28 05:28:41;;;;;;;;;;;15.70;99.90;;;;;;5082151;27;20022;-82
2021/08/28 05:31:07;;;;;;;;;;;15.70;99.90;;;;;;5098247;27;20332;-82
2021/08/28 05:33:32;;;;;;;;;;;15.70;99.90;;;;;;5081704;27;19961;-81
2021/08/28 05:35:58;;;;;;;;;;;15.70;99.90;;;;;;5082255;27;20446;-81
2021/08/28 05:38:23;;;;;;;;;;;15.70;99.90;;;;;;5082410;27;19923;-81
2021/08/28 05:40:49;;;;;;;;;;;15.70;99.90;;;;;;5097938;27;19931;-81
2021/08/28 05:43:15;;;;;;;;;;;15.80;99.90;;;;;;5098285;27;19976;-81
2021/08/28 05:45:40;;;;;;;;;;;15.80;99.90;;;;;;5121659;27;19919;-81
2021/08/28 05:48:06;;;;;;;;;;;15.80;99.90;;;;;;5098110;27;19923;-82
2021/08/28 05:50:31;;;;;;;;;;;15.80;99.90;;;;;;5115339;27;19996;-81
2021/08/28 05:52:57;;;;;;;;;;;15.80;99.90;;;;;;5097452;27;20424;-81
2021/08/28 05:55:23;;;;;;;;;;;15.80;99.90;;;;;;5099520;27;19926;-81
2021/08/28 05:57:48;;;;;;;;;;;15.80;99.90;;;;;;5101321;27;20011;-82
2021/08/28 06:00:14;;;;;;;;;;;15.90;99.90;;;;;;5117360;27;20370;-81
2021/08/28 06:02:39;;;;;;;;;;;15.80;99.90;;;;;;5107226;27;20042;-81
2021/08/28 06:05:09;;;;;;;;;;;15.90;99.90;;;;;;5107092;27;20338;-81
2021/08/28 06:07:35;;;;;;;;;;;15.90;99.90;;;;;;5106812;27;19974;-81
2021/08/28 06:10:01;;;;;;;;;;;15.90;99.90;;;;;;5106074;27;20380;-81
2021/08/28 06:12:27;;;;;;;;;;;15.90;99.90;;;;;;5124588;27;19950;-80
2021/08/28 06:14:52;;;;;;;;;;;15.90;99.90;;;;;;5091204;27;19966;-81
2021/08/28 06:17:18;;;;;;;;;;;16.00;99.90;;;;;;5107473;27;19923;-81
2021/08/28 06:19:43;;;;;;;;;;;16.00;99.90;;;;;;5089256;27;19923;-80
2021/08/28 06:22:09;;;;;;;;;;;16.10;99.90;;;;;;5093601;27;19923;-81
2021/08/28 06:24:34;;;;;;;;;;;16.20;99.90;;;;;;5105321;27;19923;-81
2021/08/28 06:27:00;;;;;;;;;;;16.10;99.90;;;;;;5105244;27;20270;-81
2021/08/28 06:29:26;;;;;;;;;;;16.10;99.90;;;;;;5109182;27;19975;-81
2021/08/28 06:31:51;;;;;;;;;;;16.10;99.90;;;;;;5105969;27;19924;-81
2021/08/28 06:34:17;;;;;;;;;;;16.10;99.90;;;;;;5103869;27;19924;-81
2021/08/28 06:36:42;;;;;;;;;;;16.10;99.90;;;;;;5107228;27;19919;-81
2021/08/28 06:39:08;;;;;;;;;;;16.20;99.90;;;;;;5087265;27;19971;-81
2021/08/28 06:41:33;;;;;;;;;;;16.20;99.90;;;;;;5124434;27;20396;-81
2021/08/28 06:43:59;;;;;;;;;;;16.10;99.90;;;;;;5124985;27;20006;-82
2021/08/28 06:46:26;;;;;;;;;;;16.10;99.90;;;;;;5104410;27;19930;-82
2021/08/28 06:48:52;;;;;;;;;;;16.20;99.90;;;;;;5103499;27;20184;-81
2021/08/28 06:51:18;;;;;;;;;;;16.10;99.90;;;;;;5126905;27;19920;-81
2021/08/28 06:53:43;;;;;;;;;;;16.10;99.90;;;;;;5099014;27;20346;-81
2021/08/28 06:56:09;;;;;;;;;;;16.10;99.90;;;;;;5101078;27;19930;-81
2021/08/28 06:58:34;;;;;;;;;;;16.20;99.90;;;;;;5095746;27;19926;-81
2021/08/28 07:01:00;;;;;;;;;;;16.10;99.90;;;;;;5077810;27;19923;-81
2021/08/28 07:03:26;;;;;;;;;;;16.20;99.90;;;;;;5082657;27;19923;-81
2021/08/28 07:05:52;;;;;;;;;;;16.10;99.90;;;;;;5112857;27;19927;-81
2021/08/28 07:08:17;;;;;;;;;;;16.20;99.90;;;;;;5098352;27;19927;-81
2021/08/28 07:10:43;;;;;;;;;;;16.20;99.90;;;;;;5081622;27;19923;-81
2021/08/28 07:13:09;;;;;;;;;;;16.20;99.90;;;;;;5097646;27;19974;-81
2021/08/28 07:15:34;;;;;;;;;;;16.20;99.90;;;;;;5113094;27;20331;-81
2021/08/28 07:18:00;;;;;;;;;;;16.20;99.90;;;;;;5095784;27;19923;-81
2021/08/28 07:20:25;;;;;;;;;;;16.20;99.90;;;;;;5096096;27;20010;-81
2021/08/28 07:22:51;;;;;;;;;;;16.30;99.90;;;;;;5086637;27;19926;-81
2021/08/28 07:25:18;;;;;;;;;;;16.30;99.90;;;;;;5078843;27;19924;-81
2021/08/28 07:27:44;;;;;;;;;;;16.30;99.90;;;;;;5114280;27;19934;-81
2021/08/28 07:30:10;;;;;;;;;;;16.40;99.90;;;;;;5095875;27;19919;-82
2021/08/28 07:32:36;;;;;;;;;;;16.30;99.90;;;;;;5094978;27;19930;-81
2021/08/28 07:35:01;;;;;;;;;;;16.20;99.90;;;;;;5095861;27;19923;-81
2021/08/28 07:37:27;;;;;;;;;;;16.20;99.90;;;;;;5097041;27;19915;-81
2021/08/28 07:39:52;;;;;;;;;;;16.10;99.90;;;;;;5089543;27;19923;-81
2021/08/28 07:42:18;;;;;;;;;;;16.10;99.90;;;;;;5096669;27;19919;-82
2021/08/28 07:44:45;;;;;;;;;;;16.20;99.90;;;;;;5102301;27;19923;-82
2021/08/28 07:47:10;;;;;;;;;;;16.20;99.90;;;;;;5112728;27;20341;-81
2021/08/28 07:49:36;;;;;;;;;;;16.20;99.90;;;;;;5087453;27;19923;-81
2021/08/28 07:52:02;;;;;;;;;;;16.20;99.90;;;;;;5093705;27;19927;-81
2021/08/28 07:54:28;;;;;;;;;;;16.10;99.90;;;;;;5094460;27;19923;-81
2021/08/28 07:56:53;;;;;;;;;;;16.10;99.90;;;;;;5094274;27;20578;-81
2021/08/28 07:59:19;;;;;;;;;;;16.20;99.90;;;;;;5096413;27;19946;-81
2021/08/28 08:01:44;;;;;;;;;;;16.10;99.90;;;;;;5097124;27;19930;-81
2021/08/28 08:04:10;;;;;;;;;;;16.10;99.90;;;;;;5101561;27;19919;-82
2021/08/28 08:06:35;;;;;;;;;;;16.10;99.90;;;;;;5104465;27;20396;-81
2021/08/28 08:09:01;;;;;;;;;;;16.20;99.90;;;;;;5079490;27;19924;-81
2021/08/28 08:11:27;;;;;;;;;;;16.20;99.90;;;;;;5078513;27;20378;-81
2021/08/28 08:13:52;;;;;;;;;;;16.20;99.90;;;;;;5095140;27;20324;-81
2021/08/28 08:16:18;;;;;;;;;;;16.30;99.90;;;;;;5078476;27;19923;-81
2021/08/28 08:18:44;;;;;;;;;;;16.20;99.90;;;;;;5096637;27;20306;-81
2021/08/28 08:21:09;;;;;;;;;;;16.20;99.90;;;;;;5080901;27;19923;-81
2021/08/28 08:23:35;;;;;;;;;;;16.20;99.90;;;;;;5094146;27;19930;-81
2021/08/28 08:26:00;;;;;;;;;;;16.20;99.90;;;;;;5078195;28;20335;-81
2021/08/28 08:28:26;;;;;;;;;;;16.10;99.90;;;;;;5079384;27;19930;-81
2021/08/28 08:30:51;;;;;;;;;;;16.10;99.90;;;;;;5078062;27;19923;-81
2021/08/28 08:33:17;;;;;;;;;;;16.10;99.90;;;;;;5083004;27;19919;-81
2021/08/28 08:35:42;;;;;;;;;;;16.00;99.90;;;;;;5131841;27;19923;-81
2021/08/28 08:38:08;;;;;;;;;;;16.00;99.90;;;;;;5088773;28;20417;-81
2021/08/28 08:40:34;;;;;;;;;;;16.00;99.90;;;;;;5077964;27;19919;-81
2021/08/28 08:43:01;;;;;;;;;;;16.00;99.90;;;;;;5095385;27;20597;-81
2021/08/28 08:45:27;;;;;;;;;;;16.10;99.90;;;;;;5099019;27;19923;-81
2021/08/28 08:47:54;;;;;;;;;;;16.10;99.90;;;;;;5110288;28;20372;-81
2021/08/28 08:50:20;;;;;;;;;;;16.10;99.90;;;;;;5111442;28;19923;-81
2021/08/28 08:52:52;;;;;;;;;;;16.20;99.90;;;;;;5094606;27;19923;-81
2021/08/28 08:55:18;;;;;;;;;;;16.30;99.90;;;;;;5095058;28;20331;-81
2021/08/28 08:57:44;;;;;;;;;;;16.40;99.90;;;;;;5111703;27;19928;-81
2021/08/28 09:00:10;;;;;;;;;;;16.40;99.90;;;;;;5079036;28;20290;-81
2021/08/28 09:02:36;;;;;;;;;;;16.30;99.90;;;;;;5094921;28;19931;-81
2021/08/28 09:05:01;;;;;;;;;;;16.20;99.90;;;;;;5094604;28;20398;-81
2021/08/28 09:07:27;;;;;;;;;;;16.30;99.90;;;;;;5094555;27;19988;-81
2021/08/28 09:09:53;;;;;;;;;;;16.20;99.90;;;;;;5101494;28;20333;-81
2021/08/28 09:12:18;;;;;;;;;;;16.30;99.90;;;;;;5078503;27;19980;-81
2021/08/28 09:14:44;;;;;;;;;;;16.40;99.90;;;;;;5094341;28;19923;-81
2021/08/28 09:17:14;;;;;;;;;;;16.50;99.90;;;;;;5079034;27;19926;-81
2021/08/28 09:19:40;;;;;;;;;;;16.50;99.90;;;;;;5107956;27;19923;-81
2021/08/28 09:22:07;;;;;;;;;;;16.50;99.90;;;;;;5085354;27;19930;-81
2021/08/28 09:24:45;;;;;;;;;;;16.40;99.90;;;;;;5109271;27;19923;-81
2021/08/28 09:27:11;;;;;;;;;;;16.50;99.90;;;;;;5104487;27;19922;-81
2021/08/28 09:29:41;;;;;;;;;;;16.40;99.90;;;;;;5101305;27;19930;-81
2021/08/28 09:32:06;;;;;;;;;;;16.40;99.90;;;;;;5114599;27;20003;-81
2021/08/28 09:34:32;;;;;;;;;;;16.40;99.90;;;;;;5129093;27;20400;-81
2021/08/28 09:37:02;;;;;;;;;;;16.50;99.90;;;;;;5096998;27;19923;-81
2021/08/28 09:39:37;;;;;;;;;;;16.60;99.90;;;;;;5110716;27;19919;-81
2021/08/28 09:42:03;;;;;;;;;;;16.50;99.90;;;;;;5093508;28;19923;-81
2021/08/28 09:44:34;;;;;;;;;;;16.60;99.90;;;;;;5106131;28;19923;-80
2021/08/28 09:47:13;;;;;;;;;;;16.60;99.90;;;;;;5128318;27;19926;-81
2021/08/28 09:49:43;;;;;;;;;;;16.60;99.90;;;;;;5130607;27;20291;-81
2021/08/28 09:52:10;;;;;;;;;;;16.50;99.90;;;;;;5108462;28;21263;-81
2021/08/28 09:54:37;;;;;;;;;;;16.60;99.90;;;;;;5110914;28;19926;-81
2021/08/28 09:57:02;;;;;;;;;;;16.50;99.90;;;;;;5097660;27;19974;-81
2021/08/28 09:59:28;;;;;;;;;;;16.70;99.90;;;;;;5080423;27;19974;-80
2021/08/28 10:01:54;;;;;;;;;;;16.80;99.90;;;;;;5114506;27;19924;-81
2021/08/28 10:04:19;;;;;;;;;;;16.70;99.90;;;;;;5098825;27;19927;-81
2021/08/28 10:06:46;;;;;;;;;;;16.60;99.90;;;;;;5081260;27;19923;-81
2021/08/28 10:09:13;;;;;;;;;;;16.60;99.90;;;;;;5097457;27;19969;-81
2021/08/28 10:11:38;;;;;;;;;;;16.60;99.90;;;;;;5115356;27;19920;-81
2021/08/28 10:14:04;;;;;;;;;;;16.60;99.90;;;;;;5128841;27;19934;-80
2021/08/28 10:16:30;;;;;;;;;;;16.70;99.90;;;;;;5116040;27;19919;-81
2021/08/28 10:18:56;;;;;;;;;;;16.60;99.90;;;;;;5100347;27;19919;-81
2021/08/28 10:21:21;;;;;;;;;;;16.70;99.90;;;;;;5097449;27;20019;-81
2021/08/28 10:23:52;;;;;;;;;;;16.60;99.90;;;;;;5097246;27;20488;-81
2021/08/28 10:26:18;;;;;;;;;;;16.60;99.90;;;;;;5080772;27;19919;-81
2021/08/28 10:28:44;;;;;;;;;;;16.70;99.90;;;;;;5080129;27;20034;-81
2021/08/28 10:31:11;;;;;;;;;;;16.80;99.90;;;;;;5079752;27;19919;-81
2021/08/28 10:33:37;;;;;;;;;;;16.70;99.90;;;;;;5080574;27;19919;-81
2021/08/28 10:36:07;;;;;;;;;;;16.80;99.90;;;;;;5081430;27;20048;-82
2021/08/28 10:38:33;;;;;;;;;;;16.80;99.90;;;;;;5097527;27;19920;-82
2021/08/28 10:40:58;;;;;;;;;;;16.90;99.90;;;;;;5079975;27;19928;-82
2021/08/28 10:43:25;;;;;;;;;;;17.00;99.90;;;;;;5079777;27;19925;-81
2021/08/28 10:45:51;;;;;;;;;;;17.00;99.90;;;;;;5102836;27;20002;-82
2021/08/28 10:48:17;;;;;;;;;;;17.00;99.90;;;;;;5113382;27;20017;-81
2021/08/28 10:50:43;;;;;;;;;;;16.90;99.90;;;;;;5099850;27;20382;-81
2021/08/28 10:53:10;;;;;;;;;;;17.00;99.90;;;;;;5100902;27;19923;-81
2021/08/28 10:55:37;;;;;;;;;;;17.00;99.90;;;;;;5099118;27;19919;-81
2021/08/28 10:58:22;;;;;;;;;;;17.20;99.90;;;;;;5134090;27;20006;-82
2021/08/28 11:00:52;;;;;;;;;;;17.20;99.90;;;;;;5097990;27;19922;-81
2021/08/28 11:03:26;;;;;;;;;;;17.00;99.90;;;;;;5096415;27;19920;-81
2021/08/28 11:06:10;;;;;;;;;;;17.10;99.90;;;;;;5104191;27;20076;-81
2021/08/28 11:08:55;;;;;;;;;;;17.20;99.90;;;;;;5126582;27;20302;-81
2021/08/28 11:11:29;;;;;;;;;;;17.20;99.90;;;;;;5112158;27;19990;-81
2021/08/28 11:13:55;;;;;;;;;;;17.30;99.90;;;;;;5095675;27;20341;-81
2021/08/28 11:16:39;;;;;;;;;;;17.20;99.90;;;;;;5102282;27;20018;-81
2021/08/28 11:19:05;;;;;;;;;;;17.40;99.90;;;;;;5116067;27;20331;-81
2021/08/28 11:21:41;;;;;;;;;;;17.40;99.90;;;;;;5116108;27;19973;-81
2021/08/28 11:24:27;;;;;;;;;;;17.40;99.90;;;;;;5116192;27;19923;-82
2021/08/28 11:26:57;;;;;;;;;;;17.50;99.90;;;;;;5095987;27;19924;-81
2021/08/28 11:29:22;;;;;;;;;;;17.40;99.90;;;;;;5103370;27;19931;-81
2021/08/28 11:32:14;;;;;;;;;;;17.50;99.90;;;;;;5101001;27;19920;-81
2021/08/28 11:34:41;;;;;;;;;;;17.50;99.90;;;;;;5110756;27;19926;-81
2021/08/28 11:37:25;;;;;;;;;;;17.50;99.90;;;;;;5095826;27;19919;-81
2021/08/28 11:39:51;;;;;;;;;;;17.50;99.90;;;;;;5095668;27;19970;-82
2021/08/28 11:42:17;;;;;;;;;;;17.60;99.90;;;;;;5079112;27;19924;-82
2021/08/28 11:44:49;;;;;;;;;;;17.60;99.90;;;;;;5099771;27;19929;-81
2021/08/28 11:47:15;;;;;;;;;;;17.40;99.90;;;;;;5096072;27;19963;-82
2021/08/28 11:49:41;;;;;;;;;;;17.50;99.90;;;;;;5075231;27;19931;-82
2021/08/28 11:52:07;;;;;;;;;;;17.50;99.90;;;;;;5086051;27;19930;-81
2021/08/28 11:54:33;;;;;;;;;;;17.40;99.90;;;;;;5085075;27;19919;-81
2021/08/28 11:56:58;;;;;;;;;;;17.50;99.90;;;;;;5112055;27;19958;-82
2021/08/28 11:59:33;;;;;;;;;;;17.50;99.90;;;;;;5077952;27;19970;-81
2021/08/28 12:01:59;;;;;;;;;;;17.60;99.90;;;;;;5121342;27;19931;-81
2021/08/28 12:04:25;;;;;;;;;;;17.60;99.90;;;;;;5110356;27;19926;-81
2021/08/28 12:06:51;;;;;;;;;;;17.60;99.90;;;;;;5080251;27;19942;-81
2021/08/28 12:09:17;;;;;;;;;;;17.60;99.90;;;;;;5117742;27;19930;-81
2021/08/28 12:11:49;;;;;;;;;;;17.70;99.90;;;;;;5104726;27;19919;-81
2021/08/28 12:14:15;;;;;;;;;;;17.70;99.90;;;;;;5111711;27;20442;-81
2021/08/28 12:16:41;;;;;;;;;;;17.70;99.90;;;;;;5098922;27;19919;-81
2021/08/28 12:19:09;;;;;;;;;;;17.70;99.90;;;;;;5108669;27;19926;-81
2021/08/28 12:21:39;;;;;;;;;;;17.70;99.90;;;;;;5131676;27;19923;-81
2021/08/28 12:24:11;;;;;;;;;;;17.80;99.90;;;;;;5112408;27;19928;-81
2021/08/28 12:26:36;;;;;;;;;;;17.80;99.90;;;;;;5109316;27;20056;-82
2021/08/28 12:29:03;;;;;;;;;;;17.90;99.90;;;;;;5098012;27;20034;-82
2021/08/28 12:31:30;;;;;;;;;;;18.00;99.90;;;;;;5109296;27;20406;-81
2021/08/28 12:33:56;;;;;;;;;;;18.10;99.90;;;;;;5099168;27;20475;-81
2021/08/28 12:36:30;;;;;;;;;;;18.00;99.90;;;;;;5124314;27;19976;-81
2021/08/28 12:39:06;;;;;;;;;;;18.00;99.90;;;;;;5106654;27;19968;-83
2021/08/28 12:41:32;;;;;;;;;;;18.00;99.90;;;;;;5101520;27;20444;-84
2021/08/28 12:43:57;;;;;;;;;;;18.10;99.90;;;;;;5086287;27;19919;-82
2021/08/28 12:46:23;;;;;;;;;;;18.20;99.90;;;;;;5117608;27;19923;-83
2021/08/28 12:49:08;;;;;;;;;;;18.20;99.90;;;;;;5094903;28;20028;-82
2021/08/28 12:51:33;;;;;;;;;;;18.30;99.90;;;;;;5092992;27;19923;-83
2021/08/28 12:53:59;;;;;;;;;;;18.30;99.90;;;;;;5114975;28;19976;-82
2021/08/28 12:56:25;;;;;;;;;;;18.40;99.90;;;;;;5093885;28;20010;-83
2021/08/28 12:58:50;;;;;;;;;;;18.40;99.90;;;;;;5095438;27;19927;-84
2021/08/28 13:01:16;;;;;;;;;;;18.40;99.90;;;;;;5110719;28;20352;-83
2021/08/28 13:03:49;;;;;;;;;;;18.50;99.90;;;;;;5083283;28;19930;-83
2021/08/28 13:06:23;;;;;;;;;;;18.50;99.90;;;;;;5103423;27;20313;-83
2021/08/28 13:08:49;;;;;;;;;;;18.60;99.90;;;;;;5111064;28;19927;-83
2021/08/28 13:11:19;;;;;;;;;;;18.60;99.90;;;;;;5098075;27;19923;-84
2021/08/28 13:13:57;;;;;;;;;;;18.60;99.90;;;;;;5124071;28;19934;-83
2021/08/28 13:16:22;;;;;;;;;;;18.50;99.90;;;;;;5098393;28;19973;-84
2021/08/28 13:19:06;;;;;;;;;;;18.50;99.90;;;;;;5096282;28;19927;-83
2021/08/28 13:21:36;;;;;;;;;;;18.50;99.90;;;;;;5096620;28;19963;-82
2021/08/28 13:24:11;;;;;;;;;;;18.60;99.90;;;;;;5108838;27;19930;-82
2021/08/28 13:26:56;;;;;;;;;;;18.60;99.90;;;;;;5115575;27;20390;-83
2021/08/28 13:29:34;;;;;;;;;;;18.50;99.90;;;;;;5097895;27;20395;-83
2021/08/28 13:32:03;;;;;;;;;;;18.50;99.90;;;;;;5107780;27;19927;-83
2021/08/28 13:34:39;;;;;;;;;;;18.40;99.90;;;;;;5114060;27;19926;-83
2021/08/28 13:37:05;;;;;;;;;;;18.50;99.90;;;;;;5101341;27;19924;-82
2021/08/28 13:39:31;;;;;;;;;;;18.40;99.90;;;;;;5106034;27;20425;-83
2021/08/28 13:41:56;;;;;;;;;;;18.50;99.90;;;;;;5111274;27;20022;-83
2021/08/28 13:44:22;;;;;;;;;;;18.50;99.90;;;;;;5101703;27;20011;-82
2021/08/28 13:46:48;;;;;;;;;;;18.50;99.90;;;;;;5105103;27;20020;-81
2021/08/28 13:49:14;;;;;;;;;;;18.50;99.90;;;;;;5124422;27;19928;-81
2021/08/28 13:51:39;;;;;;;;;;;18.50;99.90;;;;;;5080929;27;20389;-81
2021/08/28 13:54:05;;;;;;;;;;;18.50;99.90;;;;;;5101446;27;20378;-82
2021/08/28 13:56:31;;;;;;;;;;;18.50;99.90;;;;;;5125773;27;19919;-82
2021/08/28 13:58:56;;;;;;;;;;;18.40;99.90;;;;;;5096330;27;19930;-81
2021/08/28 14:01:22;;;;;;;;;;;18.50;99.90;;;;;;5100250;27;20001;-81
2021/08/28 14:03:47;;;;;;;;;;;18.50;99.90;;;;;;5124654;27;19971;-81
2021/08/28 14:06:14;;;;;;;;;;;18.50;99.90;;;;;;5110138;27;19974;-81
2021/08/28 14:08:39;;;;;;;;;;;18.60;99.90;;;;;;5113136;27;20412;-81
2021/08/28 14:11:05;;;;;;;;;;;18.50;99.90;;;;;;5132704;27;19923;-82
2021/08/28 14:13:30;;;;;;;;;;;18.60;99.90;;;;;;5102319;27;19927;-82
2021/08/28 14:15:56;;;;;;;;;;;18.60;99.90;;;;;;5125383;27;19923;-82